Time;durP1;ratioP1;P1;durP2;ratioP2;P2;SDS_P1;SDS_P2;PMS_P1;PMS_P2;Temp;Humidity;BMP_temperature;BMP_pressure;BME280_temperature;BME280_humidity;BME280_pressure;Samples;Min_cycle;Max_cycle;Signal;HPM_P1;HPM_P2
2021/12/24 00:00:18;;;;;;;7.97;5.93;;;8.40;99.90;;;;;;5042328;28;20437;-66
2021/12/24 00:02:45;;;;;;;5.50;4.27;;;8.40;99.90;;;;;;5041594;28;20966;-67
2021/12/24 00:05:14;;;;;;;6.57;5.57;;;8.40;99.90;;;;;;5042686;28;20446;-65
2021/12/24 00:07:41;;;;;;;5.80;4.77;;;8.40;99.90;;;;;;5041243;28;20480;-67
2021/12/24 00:10:10;;;;;;;5.87;4.63;;;8.40;99.90;;;;;;5042671;28;20468;-67
2021/12/24 00:12:43;;;;;;;5.90;4.93;;;8.30;99.90;;;;;;5041168;28;20444;-67
2021/12/24 00:15:26;;;;;;;6.90;4.50;;;8.30;99.90;;;;;;5038657;28;20479;-66
2021/12/24 00:18:00;;;;;;;7.10;5.10;;;8.30;99.90;;;;;;5026522;28;20434;-67
2021/12/24 00:21:17;;;;;;;6.40;4.63;;;8.40;99.90;;;;;;5036003;28;20506;-67
2021/12/24 00:37:04;;;;;;;7.47;4.13;;;8.60;99.90;;;;;;5038706;28;20497;-67
2021/12/24 00:39:33;;;;;;;7.20;4.87;;;8.60;99.90;;;;;;5044770;28;20455;-68
2021/12/24 00:42:00;;;;;;;4.67;4.00;;;8.60;99.90;;;;;;5044749;28;20459;-67
2021/12/24 00:44:26;;;;;;;5.83;4.70;;;8.50;99.90;;;;;;5044040;28;20464;-68
2021/12/24 00:46:53;;;;;;;8.43;5.00;;;8.40;99.90;;;;;;5043831;28;20480;-66
2021/12/24 00:49:20;;;;;;;7.53;4.53;;;8.40;99.90;;;;;;5044659;28;20479;-65
2021/12/24 00:52:06;;;;;;;4.60;3.73;;;8.30;99.90;;;;;;5044663;28;20443;-66
2021/12/24 00:57:18;;;;;;;4.60;4.10;;;8.20;99.90;;;;;;5039043;28;20439;-65
2021/12/24 00:59:45;;;;;;;7.20;4.70;;;8.20;99.90;;;;;;5041492;28;20453;-68
2021/12/24 01:02:12;;;;;;;5.60;4.27;;;8.20;99.90;;;;;;5043134;28;20438;-67
2021/12/24 01:04:39;;;;;;;5.23;4.00;;;8.20;99.90;;;;;;5032209;28;20815;-67
2021/12/24 01:07:06;;;;;;;7.50;4.80;;;8.10;99.90;;;;;;5029275;28;20504;-67
2021/12/24 01:09:34;;;;;;;6.33;4.40;;;8.10;99.90;;;;;;5033941;28;20930;-68
2021/12/24 01:12:01;;;;;;;7.53;4.70;;;8.10;99.90;;;;;;5049966;28;20462;-68
2021/12/24 01:14:29;;;;;;;6.30;5.33;;;8.10;99.90;;;;;;5048855;28;20462;-67
2021/12/24 01:17:06;;;;;;;6.20;4.90;;;8.10;99.90;;;;;;5048862;28;21156;-67
2021/12/24 01:19:34;;;;;;;7.00;4.63;;;8.00;99.90;;;;;;5049092;28;20933;-68
2021/12/24 01:22:32;;;;;;;6.43;4.83;;;8.00;99.90;;;;;;5049658;28;20523;-67
2021/12/24 01:25:02;;;;;;;6.00;4.90;;;8.00;99.90;;;;;;5048731;28;20436;-68
2021/12/24 01:27:51;;;;;;;6.77;4.67;;;8.00;99.90;;;;;;5048108;28;20494;-67
2021/12/24 01:38:36;;;;;;;7.43;5.63;;;7.90;99.90;;;;;;5047814;28;20473;-67
2021/12/24 01:41:08;;;;;;;6.03;4.40;;;7.80;99.90;;;;;;5049571;28;20543;-67
2021/12/24 01:43:34;;;;;;;5.10;4.10;;;7.80;99.90;;;;;;5028809;28;20468;-67
2021/12/24 01:46:03;;;;;;;5.37;4.07;;;7.80;99.90;;;;;;5048725;28;20486;-66
2021/12/24 01:48:30;;;;;;;5.30;4.37;;;7.80;99.90;;;;;;5048046;28;20484;-67
2021/12/24 01:50:57;;;;;;;5.87;4.73;;;7.80;99.90;;;;;;5048768;28;20538;-67
2021/12/24 01:53:27;;;;;;;5.47;4.30;;;7.80;99.90;;;;;;5028704;28;20477;-66
2021/12/24 01:55:54;;;;;;;5.57;4.43;;;7.70;99.90;;;;;;5029359;28;20457;-67
2021/12/24 01:58:24;;;;;;;5.13;4.20;;;7.70;99.90;;;;;;5041478;28;20506;-67
2021/12/24 02:00:52;;;;;;;6.47;4.90;;;7.80;99.90;;;;;;5034136;28;20453;-67
2021/12/24 02:03:19;;;;;;;6.37;4.37;;;7.80;99.90;;;;;;5036495;28;20932;-67
2021/12/24 02:05:48;;;;;;;5.53;3.87;;;7.70;99.90;;;;;;5028871;28;20449;-68
2021/12/24 02:08:16;;;;;;;7.53;4.23;;;7.70;99.90;;;;;;5028028;28;20907;-67
2021/12/24 02:10:44;;;;;;;5.03;3.87;;;7.70;99.90;;;;;;5028914;28;20986;-66
2021/12/24 02:13:13;;;;;;;5.40;4.20;;;7.80;99.90;;;;;;5027939;28;20463;-67
2021/12/24 02:15:50;;;;;;;6.00;4.77;;;7.80;99.90;;;;;;5048638;28;20872;-67
2021/12/24 02:18:46;;;;;;;5.63;4.40;;;7.80;99.90;;;;;;5047040;28;20864;-67
2021/12/24 02:29:27;;;;;;;5.50;4.10;;;8.10;99.90;;;;;;5048110;28;20438;-67
2021/12/24 02:31:53;;;;;;;6.77;4.00;;;8.20;99.90;;;;;;5047720;28;20456;-65
2021/12/24 02:34:20;;;;;;;5.97;4.37;;;8.20;99.90;;;;;;5039016;28;20461;-67
2021/12/24 02:36:48;;;;;;;7.60;4.90;;;8.20;99.90;;;;;;5027434;28;20437;-68
2021/12/24 02:39:16;;;;;;;5.87;4.10;;;8.30;99.90;;;;;;5028146;28;20445;-67
2021/12/24 02:41:43;;;;;;;4.50;3.70;;;8.40;99.90;;;;;;5028445;28;20473;-66
2021/12/24 02:44:10;;;;;;;6.20;4.00;;;8.40;99.90;;;;;;5027629;28;20465;-67
2021/12/24 02:46:43;;;;;;;7.03;4.80;;;8.50;99.90;;;;;;5027249;28;20485;-67
2021/12/24 02:49:14;;;;;;;5.40;4.17;;;8.50;99.90;;;;;;5047559;28;20476;-67
2021/12/24 02:54:27;;;;;;;4.13;3.43;;;8.70;99.90;;;;;;5046702;28;20447;-66
2021/12/24 02:56:59;;;;;;;5.07;3.33;;;8.60;99.90;;;;;;5046750;28;20462;-67
2021/12/24 02:59:28;;;;;;;5.57;3.97;;;8.60;99.90;;;;;;5040378;28;20449;-68
2021/12/24 03:01:57;;;;;;;6.53;3.50;;;8.60;99.90;;;;;;5043725;28;20449;-67
2021/12/24 03:04:24;;;;;;;5.17;3.70;;;8.60;99.90;;;;;;5034301;28;20474;-67
2021/12/24 03:06:54;;;;;;;3.93;3.30;;;8.60;99.90;;;;;;5027069;28;20464;-67
2021/12/24 03:09:21;;;;;;;4.40;3.30;;;8.70;99.90;;;;;;5027205;28;20481;-66
2021/12/24 03:11:52;;;;;;;5.10;4.00;;;8.80;99.90;;;;;;5031647;28;20513;-67
2021/12/24 03:14:20;;;;;;;6.20;3.60;;;8.80;99.90;;;;;;5046066;28;20480;-67
2021/12/24 03:16:53;;;;;;;5.07;3.73;;;8.80;99.90;;;;;;5046186;28;20452;-67
2021/12/24 03:19:24;;;;;;;3.60;2.83;;;8.90;99.90;;;;;;5048733;28;20510;-67
2021/12/24 03:21:56;;;;;;;4.30;3.10;;;8.90;99.90;;;;;;5049053;28;20448;-68
2021/12/24 03:24:35;;;;;;;4.50;3.20;;;9.00;99.90;;;;;;5048189;28;20479;-67
2021/12/24 03:27:05;;;;;;;6.00;3.40;;;8.90;99.90;;;;;;5047967;28;20455;-67
2021/12/24 03:29:32;;;;;;;5.13;3.20;;;8.90;99.90;;;;;;5048698;28;20488;-68
2021/12/24 03:31:59;;;;;;;5.10;3.10;;;9.00;99.90;;;;;;5048629;28;20479;-67
2021/12/24 03:34:26;;;;;;;6.10;3.97;;;9.00;99.90;;;;;;5048257;28;20468;-67
2021/12/24 03:36:53;;;;;;;4.60;3.00;;;9.00;99.90;;;;;;5047747;28;20449;-67
2021/12/24 03:39:20;;;;;;;5.70;3.30;;;9.00;99.90;;;;;;5048658;28;20448;-68
2021/12/24 03:41:48;;;;;;;4.10;3.00;;;9.00;99.90;;;;;;5048737;28;20444;-68
2021/12/24 03:44:18;;;;;;;4.40;3.50;;;9.00;99.90;;;;;;5048279;28;20472;-68
2021/12/24 03:46:54;;;;;;;3.73;3.13;;;9.10;99.90;;;;;;5047933;28;20530;-67
2021/12/24 03:49:32;;;;;;;5.27;3.13;;;9.00;99.90;;;;;;5048442;28;20522;-67
2021/12/24 03:52:04;;;;;;;5.00;3.37;;;9.00;99.90;;;;;;5048433;28;20498;-67
2021/12/24 03:57:16;;;;;;;4.60;2.90;;;9.00;99.90;;;;;;5047417;28;20415;-67
2021/12/24 03:59:45;;;;;;;6.40;3.20;;;9.10;99.90;;;;;;5048074;28;20449;-67
2021/12/24 04:02:11;;;;;;;5.00;2.90;;;9.10;99.90;;;;;;5047967;28;20470;-67
2021/12/24 04:04:38;;;;;;;4.37;2.67;;;9.10;99.90;;;;;;5047788;28;20475;-67
2021/12/24 04:07:06;;;;;;;4.57;3.43;;;9.10;99.90;;;;;;5047175;28;20436;-67
2021/12/24 04:09:35;;;;;;;5.13;3.10;;;9.10;99.90;;;;;;5048235;28;20484;-67
2021/12/24 04:12:02;;;;;;;6.33;3.20;;;9.10;99.90;;;;;;5048003;28;20553;-67
2021/12/24 04:14:29;;;;;;;4.90;2.93;;;9.00;99.90;;;;;;5047433;28;20473;-66
2021/12/24 04:16:57;;;;;;;3.93;2.97;;;9.00;99.90;;;;;;5046810;28;20444;-67
2021/12/24 04:24:49;;;;;;;3.90;3.50;;;9.00;99.90;;;;;;5048062;28;20454;-67
2021/12/24 04:24:59;;;;;;;4.00;2.50;;;9.00;99.90;;;;;;5047636;28;20428;-67
2021/12/24 04:27:28;;;;;;;2.93;2.37;;;9.00;99.90;;;;;;5046762;28;20452;-66
2021/12/24 04:30:02;;;;;;;4.10;3.23;;;8.90;99.90;;;;;;5047833;28;20441;-68
2021/12/24 04:32:46;;;;;;;4.10;3.10;;;8.90;99.90;;;;;;5047560;28;20474;-68
2021/12/24 04:35:32;;;;;;;4.23;3.20;;;8.90;99.90;;;;;;5047485;28;20948;-67
2021/12/24 04:51:51;;;;;;;5.17;3.33;;;8.80;99.90;;;;;;5047843;28;20424;-67
2021/12/24 05:02:45;;;;;;;5.10;3.33;;;8.80;99.90;;;;;;5047523;28;20509;-68
2021/12/24 05:05:21;;;;;;;4.77;3.70;;;8.80;99.90;;;;;;5048117;28;20506;-67
2021/12/24 05:10:37;;;;;;;4.40;2.57;;;8.90;99.90;;;;;;5043843;28;21006;-67
2021/12/24 05:13:05;;;;;;;4.40;3.40;;;8.90;99.90;;;;;;5046999;28;20460;-67
2021/12/24 05:15:35;;;;;;;4.60;3.20;;;8.90;99.90;;;;;;5047542;28;20443;-67
2021/12/24 05:18:27;;;;;;;3.97;2.80;;;8.90;99.90;;;;;;5046861;28;20472;-67
2021/12/24 05:23:40;;;;;;;4.33;3.40;;;8.90;99.90;;;;;;5046844;28;20439;-67
2021/12/24 05:26:08;;;;;;;4.80;3.10;;;8.90;99.90;;;;;;5047467;28;20441;-67
2021/12/24 05:28:35;;;;;;;7.30;3.40;;;8.90;99.90;;;;;;5046848;28;20492;-67
2021/12/24 05:31:01;;;;;;;4.10;3.03;;;8.90;99.90;;;;;;5047173;28;20449;-67
2021/12/24 05:33:28;;;;;;;4.90;3.27;;;8.80;99.90;;;;;;5046806;28;20452;-67
2021/12/24 05:35:57;;;;;;;3.70;2.90;;;8.90;99.90;;;;;;5047132;28;20553;-67
2021/12/24 05:38:23;;;;;;;4.63;3.03;;;8.80;99.90;;;;;;5046412;28;20437;-67
2021/12/24 05:40:50;;;;;;;3.63;2.83;;;8.80;99.90;;;;;;5047236;28;21118;-68
2021/12/24 05:43:18;;;;;;;5.97;3.27;;;8.80;99.90;;;;;;5046713;28;20469;-67
2021/12/24 05:45:45;;;;;;;5.63;2.70;;;8.80;99.90;;;;;;5047078;28;20856;-67
2021/12/24 05:48:12;;;;;;;5.10;2.80;;;8.80;99.90;;;;;;5049449;28;20483;-68
2021/12/24 05:50:39;;;;;;;3.47;2.60;;;8.80;99.90;;;;;;5050669;28;20454;-67
2021/12/24 05:53:07;;;;;;;5.20;3.53;;;8.80;99.90;;;;;;5050452;28;20460;-67
2021/12/24 05:55:34;;;;;;;5.33;3.33;;;8.80;99.90;;;;;;5050760;28;20444;-67
2021/12/24 05:58:02;;;;;;;5.33;3.20;;;8.80;99.90;;;;;;5049986;28;20455;-68
2021/12/24 06:00:28;;;;;;;4.50;3.40;;;8.80;99.90;;;;;;5050542;28;20544;-67
2021/12/24 06:02:57;;;;;;;7.10;4.00;;;8.90;99.90;;;;;;5049783;28;20978;-67
2021/12/24 06:05:24;;;;;;;4.70;3.03;;;8.90;99.90;;;;;;5050370;28;20457;-66
2021/12/24 06:07:51;;;;;;;5.57;3.20;;;9.00;99.90;;;;;;5049507;28;20459;-67
2021/12/24 06:10:19;;;;;;;5.50;3.50;;;9.10;99.90;;;;;;5050072;28;20898;-67
2021/12/24 06:12:46;;;;;;;4.50;3.10;;;9.10;99.90;;;;;;5049628;28;20460;-67
2021/12/24 06:15:16;;;;;;;4.90;3.20;;;9.20;99.90;;;;;;5050283;28;20432;-67
2021/12/24 06:17:43;;;;;;;5.77;3.50;;;9.20;99.90;;;;;;5049611;28;20871;-67
2021/12/24 06:20:12;;;;;;;5.53;3.80;;;9.30;99.90;;;;;;5050490;28;20520;-67
2021/12/24 06:22:39;;;;;;;5.30;3.70;;;9.30;99.90;;;;;;5049867;28;20441;-67
2021/12/24 06:25:06;;;;;;;4.67;3.30;;;9.30;99.90;;;;;;5050143;28;20432;-67
2021/12/24 06:27:34;;;;;;;5.70;3.50;;;9.40;99.90;;;;;;5049208;28;20440;-68
2021/12/24 06:30:01;;;;;;;4.60;3.77;;;9.40;99.90;;;;;;5050002;28;20519;-67
2021/12/24 06:32:28;;;;;;;5.90;3.60;;;9.50;99.90;;;;;;5049561;28;20444;-67
2021/12/24 06:34:55;;;;;;;4.77;3.43;;;9.50;99.90;;;;;;5049500;28;20447;-67
2021/12/24 06:37:22;;;;;;;5.60;3.43;;;9.50;99.90;;;;;;5049036;28;20449;-67
2021/12/24 06:39:49;;;;;;;4.60;3.60;;;9.50;99.90;;;;;;5049287;28;20478;-67
2021/12/24 06:42:17;;;;;;;4.20;3.40;;;9.50;99.90;;;;;;5049355;28;20449;-67
2021/12/24 06:44:45;;;;;;;4.80;3.63;;;9.50;99.90;;;;;;5049087;28;20536;-67
2021/12/24 06:47:12;;;;;;;4.50;3.40;;;9.60;99.90;;;;;;5049006;28;20433;-67
2021/12/24 06:49:39;;;;;;;3.90;3.03;;;9.60;99.90;;;;;;5049351;28;20483;-67
2021/12/24 06:52:06;;;;;;;5.27;3.53;;;9.60;99.90;;;;;;5049663;28;20536;-67
2021/12/24 06:54:33;;;;;;;4.37;2.93;;;9.60;99.90;;;;;;5048835;28;20467;-67
2021/12/24 06:57:00;;;;;;;5.20;3.40;;;9.70;99.90;;;;;;5048735;28;20441;-68
2021/12/24 06:59:27;;;;;;;4.00;3.20;;;9.80;99.90;;;;;;5048566;28;20828;-66
2021/12/24 07:01:59;;;;;;;6.77;4.43;;;9.80;99.90;;;;;;5049405;28;20444;-67
2021/12/24 07:04:26;;;;;;;8.53;3.30;;;9.90;99.90;;;;;;5048761;28;20464;-68
2021/12/24 07:06:53;;;;;;;5.40;3.90;;;10.00;99.90;;;;;;5048422;28;20441;-68
2021/12/24 07:09:20;;;;;;;4.90;3.67;;;10.10;99.90;;;;;;5048842;28;20564;-67
2021/12/24 07:11:48;;;;;;;4.87;3.10;;;10.10;99.90;;;;;;5049027;28;20451;-67
2021/12/24 07:14:15;;;;;;;4.50;3.43;;;10.10;99.90;;;;;;5047749;28;20495;-67
2021/12/24 07:16:42;;;;;;;4.83;3.30;;;10.10;99.90;;;;;;5047818;28;20462;-67
2021/12/24 07:19:10;;;;;;;5.50;3.63;;;10.20;99.90;;;;;;5048673;28;20451;-67
2021/12/24 07:21:38;;;;;;;7.73;3.50;;;10.20;99.90;;;;;;5048637;28;20449;-67
2021/12/24 07:24:06;;;;;;;5.33;4.33;;;10.20;99.90;;;;;;5048172;28;20978;-67
2021/12/24 07:26:33;;;;;;;5.90;3.77;;;10.20;99.90;;;;;;5047908;28;20530;-67
2021/12/24 07:29:00;;;;;;;6.00;3.77;;;10.30;99.90;;;;;;5048920;28;20499;-67
2021/12/24 07:31:35;;;;;;;6.37;4.23;;;10.30;99.90;;;;;;5047944;28;20471;-67
2021/12/24 07:34:02;;;;;;;7.00;4.10;;;10.30;99.90;;;;;;5048439;28;20468;-67
2021/12/24 07:36:30;;;;;;;4.30;3.60;;;10.30;99.90;;;;;;5048094;28;20961;-66
2021/12/24 07:38:57;;;;;;;5.30;3.63;;;10.30;99.90;;;;;;5048694;28;20531;-68
2021/12/24 07:41:25;;;;;;;5.20;3.73;;;10.30;99.90;;;;;;5048685;28;20465;-67
2021/12/24 07:43:52;;;;;;;6.00;4.53;;;10.30;99.90;;;;;;5048067;28;21097;-67
2021/12/24 07:46:20;;;;;;;4.63;3.33;;;10.40;99.90;;;;;;5047757;28;20547;-67
2021/12/24 07:48:49;;;;;;;5.13;3.90;;;10.40;99.90;;;;;;5048206;28;20480;-67
2021/12/24 07:54:04;;;;;;;5.57;4.10;;;10.30;99.90;;;;;;5047713;28;20444;-67
2021/12/24 07:56:34;;;;;;;5.73;3.43;;;10.20;99.90;;;;;;5047359;28;20471;-65
2021/12/24 07:59:01;;;;;;;4.40;3.33;;;10.20;99.90;;;;;;5047937;28;20535;-68
2021/12/24 08:01:28;;;;;;;7.37;3.67;;;10.20;99.90;;;;;;5048261;28;20460;-68
2021/12/24 08:03:56;;;;;;;4.30;3.47;;;10.20;99.90;;;;;;5047633;28;20547;-67
2021/12/24 08:06:25;;;;;;;4.60;3.87;;;10.20;99.90;;;;;;5047239;28;20452;-67
2021/12/24 08:08:52;;;;;;;5.57;3.83;;;10.20;99.90;;;;;;5047851;28;20484;-68
2021/12/24 08:11:20;;;;;;;4.57;3.33;;;10.10;99.90;;;;;;5047618;28;20456;-66
2021/12/24 08:13:47;;;;;;;5.40;3.63;;;10.10;99.90;;;;;;5047637;28;20484;-67
2021/12/24 08:16:15;;;;;;;4.60;3.63;;;10.10;99.90;;;;;;5047463;28;20454;-67
2021/12/24 08:18:44;;;;;;;5.10;2.90;;;10.10;99.90;;;;;;5047805;28;20452;-67
2021/12/24 08:21:11;;;;;;;5.97;3.80;;;10.10;99.90;;;;;;5047968;28;20456;-68
2021/12/24 08:23:38;;;;;;;4.47;3.33;;;10.10;99.90;;;;;;5047144;28;20548;-66
2021/12/24 08:26:05;;;;;;;3.90;3.17;;;10.00;99.90;;;;;;5047652;28;20455;-67
2021/12/24 08:28:33;;;;;;;4.17;3.77;;;10.00;99.90;;;;;;5047101;28;20487;-67
2021/12/24 08:31:00;;;;;;;5.50;3.90;;;10.00;99.90;;;;;;5047751;28;20511;-67
2021/12/24 08:33:27;;;;;;;5.70;3.63;;;10.10;99.90;;;;;;5047096;28;20559;-68
2021/12/24 08:35:54;;;;;;;6.07;3.93;;;10.10;99.90;;;;;;5047267;28;21023;-67
2021/12/24 08:38:21;;;;;;;5.57;3.20;;;10.10;99.90;;;;;;5038425;28;20457;-68
2021/12/24 08:40:48;;;;;;;6.90;4.23;;;10.20;99.90;;;;;;5029342;28;20461;-68
2021/12/24 08:43:15;;;;;;;3.67;3.33;;;10.20;99.90;;;;;;5043787;28;20471;-67
2021/12/24 08:45:43;;;;;;;4.70;3.67;;;10.20;99.90;;;;;;5040282;28;20467;-67
2021/12/24 08:48:10;;;;;;;4.27;3.70;;;10.30;99.90;;;;;;5043021;28;20459;-67
2021/12/24 08:50:37;;;;;;;5.63;3.60;;;10.30;99.90;;;;;;5045312;28;20484;-68
2021/12/24 08:53:06;;;;;;;7.10;5.37;;;10.30;99.90;;;;;;5046176;28;20468;-67
2021/12/24 08:55:33;;;;;;;4.67;3.00;;;10.30;99.90;;;;;;5047329;28;20446;-67
2021/12/24 08:57:59;;;;;;;5.80;3.83;;;10.30;99.90;;;;;;5045950;28;20459;-67
2021/12/24 09:00:26;;;;;;;4.67;3.10;;;10.30;99.90;;;;;;5043417;28;20527;-67
2021/12/24 09:02:55;;;;;;;4.07;3.20;;;10.30;99.90;;;;;;5043518;28;20492;-67
2021/12/24 09:05:21;;;;;;;4.60;3.40;;;10.40;99.90;;;;;;5047209;28;20457;-66
2021/12/24 09:07:48;;;;;;;4.10;3.03;;;10.30;99.90;;;;;;5043079;28;20821;-67
2021/12/24 09:10:15;;;;;;;6.37;3.43;;;10.30;99.90;;;;;;5046844;28;20978;-67
2021/12/24 09:12:43;;;;;;;5.57;3.10;;;10.30;99.90;;;;;;5044653;28;20448;-68
2021/12/24 09:15:11;;;;;;;3.97;3.10;;;10.30;99.90;;;;;;5046653;28;20453;-66
2021/12/24 09:17:43;;;;;;;4.50;3.00;;;10.30;99.90;;;;;;5043081;28;21069;-66
2021/12/24 09:20:14;;;;;;;4.23;2.93;;;10.30;99.90;;;;;;5046409;28;20454;-66
2021/12/24 09:22:41;;;;;;;5.33;3.47;;;10.10;99.90;;;;;;5048840;28;20455;-66
2021/12/24 09:25:09;;;;;;;3.83;3.00;;;10.00;99.90;;;;;;5050536;28;20798;-69
2021/12/24 09:27:36;;;;;;;4.13;2.80;;;9.90;99.90;;;;;;5045429;28;20449;-67
2021/12/24 09:30:04;;;;;;;4.40;3.10;;;9.90;99.90;;;;;;5047114;28;20842;-69
2021/12/24 09:32:31;;;;;;;4.80;3.17;;;9.80;99.90;;;;;;5043713;28;20460;-67
2021/12/24 09:34:58;;;;;;;4.93;3.80;;;9.80;99.90;;;;;;5045012;28;20475;-68
2021/12/24 09:37:27;;;;;;;4.07;3.00;;;9.80;99.90;;;;;;5045694;28;20452;-69
2021/12/24 09:39:54;;;;;;;5.50;3.80;;;9.80;99.90;;;;;;5044456;28;20441;-69
2021/12/24 09:42:21;;;;;;;4.67;3.83;;;9.80;99.90;;;;;;5048650;28;20440;-68
2021/12/24 09:44:48;;;;;;;3.60;2.70;;;9.70;99.90;;;;;;5049883;28;21143;-69
2021/12/24 09:47:14;;;;;;;4.00;2.70;;;9.70;99.90;;;;;;5047752;28;20450;-69
2021/12/24 09:49:41;;;;;;;4.67;3.30;;;9.70;99.90;;;;;;5040473;28;20472;-69
2021/12/24 09:52:09;;;;;;;4.60;3.33;;;9.70;99.90;;;;;;5035739;28;20483;-71
2021/12/24 09:54:43;;;;;;;4.07;3.00;;;9.70;99.90;;;;;;5044353;28;20475;-73
2021/12/24 09:57:10;;;;;;;6.47;3.53;;;9.70;99.90;;;;;;5046973;28;20540;-72
2021/12/24 09:59:37;;;;;;;3.93;3.33;;;9.70;99.90;;;;;;5050222;28;20444;-71
2021/12/24 10:02:07;;;;;;;4.50;3.17;;;9.60;99.90;;;;;;5050100;28;20449;-71
2021/12/24 10:04:36;;;;;;;7.10;3.57;;;9.60;99.90;;;;;;5049755;28;20464;-71
2021/12/24 10:07:05;;;;;;;5.60;4.10;;;9.50;99.90;;;;;;5049063;28;20436;-71
2021/12/24 10:09:34;;;;;;;4.30;3.73;;;9.40;99.90;;;;;;5048647;28;20860;-70
2021/12/24 10:12:05;;;;;;;4.70;3.67;;;9.30;99.90;;;;;;5048462;28;20567;-71
2021/12/24 10:14:33;;;;;;;5.30;3.87;;;9.30;99.90;;;;;;5046356;28;20559;-72
2021/12/24 10:17:01;;;;;;;5.37;4.10;;;9.20;99.90;;;;;;5049540;28;20445;-72
2021/12/24 10:19:28;;;;;;;4.80;4.27;;;9.20;99.90;;;;;;5046629;28;20451;-71
2021/12/24 10:22:00;;;;;;;5.23;4.30;;;9.20;99.90;;;;;;5048004;28;21202;-71
2021/12/24 10:24:28;;;;;;;6.53;4.67;;;9.20;99.90;;;;;;5038186;28;20477;-70
2021/12/24 10:26:57;;;;;;;6.63;4.53;;;9.10;99.90;;;;;;5040938;28;20480;-71
2021/12/24 10:29:30;;;;;;;6.37;5.37;;;9.10;99.90;;;;;;5038241;28;20445;-71
2021/12/24 10:31:59;;;;;;;5.20;4.13;;;9.20;99.90;;;;;;5042435;28;20558;-71
2021/12/24 10:34:27;;;;;;;5.27;3.70;;;9.20;99.90;;;;;;5047772;28;21021;-71
2021/12/24 10:36:59;;;;;;;6.03;3.63;;;9.10;99.90;;;;;;5048283;28;21203;-70
2021/12/24 10:39:28;;;;;;;4.77;3.67;;;9.20;99.90;;;;;;5049245;28;20445;-74
2021/12/24 10:41:56;;;;;;;5.53;3.90;;;9.20;99.90;;;;;;5045251;28;20453;-68
2021/12/24 10:44:25;;;;;;;6.10;3.67;;;9.20;99.90;;;;;;5040512;28;20476;-71
2021/12/24 10:47:03;;;;;;;8.30;4.30;;;9.20;99.90;;;;;;5043215;28;20540;-73
2021/12/24 10:49:54;;;;;;;6.90;4.87;;;9.20;99.90;;;;;;5049217;28;20444;-75
2021/12/24 10:55:11;;;;;;;4.83;3.83;;;9.20;99.90;;;;;;5037266;28;20444;-67
2021/12/24 10:57:40;;;;;;;4.83;3.67;;;9.20;99.90;;;;;;5037353;28;20539;-68
2021/12/24 11:00:16;;;;;;;5.00;3.80;;;9.20;99.90;;;;;;5043576;28;20456;-67
2021/12/24 11:02:48;;;;;;;6.13;3.67;;;9.20;99.90;;;;;;5043761;28;20443;-65
2021/12/24 11:05:31;;;;;;;5.97;4.30;;;9.20;99.90;;;;;;5038498;28;20452;-68
2021/12/24 11:08:00;;;;;;;4.30;3.30;;;9.30;99.90;;;;;;5041503;28;20449;-66
2021/12/24 11:10:29;;;;;;;4.20;3.30;;;9.30;99.90;;;;;;5044886;28;21032;-67
2021/12/24 11:12:57;;;;;;;5.93;3.90;;;9.30;99.90;;;;;;5042136;28;20461;-65
2021/12/24 11:15:28;;;;;;;4.80;4.20;;;9.30;99.90;;;;;;5046038;28;20530;-66
2021/12/24 11:17:59;;;;;;;6.07;3.87;;;9.40;99.90;;;;;;5039273;28;20464;-67
2021/12/24 11:20:27;;;;;;;4.90;4.33;;;9.30;99.90;;;;;;5043360;28;20520;-66
2021/12/24 11:23:01;;;;;;;6.93;3.60;;;9.40;99.90;;;;;;5038713;28;20471;-67
2021/12/24 11:25:31;;;;;;;6.13;3.23;;;9.40;99.90;;;;;;5044488;28;20455;-67
2021/12/24 11:27:59;;;;;;;4.47;3.90;;;9.40;99.90;;;;;;5044891;28;20441;-67
2021/12/24 11:30:27;;;;;;;5.80;3.80;;;9.40;99.90;;;;;;5046377;28;20477;-68
2021/12/24 11:32:56;;;;;;;5.83;3.37;;;9.40;99.90;;;;;;5048097;28;20563;-69
2021/12/24 11:35:24;;;;;;;6.10;3.47;;;9.40;99.90;;;;;;5025504;28;20467;-68
2021/12/24 11:37:53;;;;;;;4.40;2.73;;;9.40;99.90;;;;;;5033258;28;20452;-69
2021/12/24 11:40:22;;;;;;;5.40;3.23;;;9.40;99.90;;;;;;5034339;28;20448;-68
2021/12/24 11:42:53;;;;;;;4.00;2.97;;;9.50;99.90;;;;;;5038955;28;20476;-69
2021/12/24 11:45:23;;;;;;;4.80;3.53;;;9.50;99.90;;;;;;5040979;28;20539;-69
2021/12/24 11:47:50;;;;;;;4.07;2.87;;;9.50;99.90;;;;;;5027155;28;20452;-70
2021/12/24 11:50:19;;;;;;;4.00;3.07;;;9.50;99.90;;;;;;5035670;28;20492;-68
2021/12/24 11:52:48;;;;;;;5.87;2.90;;;9.60;99.90;;;;;;5041513;28;20457;-70
2021/12/24 11:55:19;;;;;;;3.20;2.63;;;9.70;99.90;;;;;;5034774;28;20497;-69
2021/12/24 11:57:57;;;;;;;4.10;2.63;;;9.70;99.90;;;;;;5032510;28;20449;-69
2021/12/24 12:00:34;;;;;;;3.97;2.90;;;9.70;99.90;;;;;;5035648;28;20467;-69
2021/12/24 12:03:01;;;;;;;5.13;3.27;;;9.70;99.90;;;;;;5036303;28;20480;-69
2021/12/24 12:05:35;;;;;;;5.00;3.27;;;9.80;99.90;;;;;;5032067;28;20449;-71
2021/12/24 12:08:38;;;;;;;4.07;2.73;;;9.90;99.90;;;;;;5038607;28;20448;-69
2021/12/24 12:11:08;;;;;;;3.50;2.60;;;10.00;99.90;;;;;;5038063;28;20515;-67
2021/12/24 12:13:47;;;;;;;5.03;2.50;;;10.10;99.90;;;;;;5036349;28;20468;-68
2021/12/24 12:16:16;;;;;;;3.97;2.80;;;10.20;99.90;;;;;;5022455;28;20602;-68
2021/12/24 12:18:47;;;;;;;5.07;3.67;;;10.30;99.90;;;;;;5034179;28;20512;-68
2021/12/24 12:21:19;;;;;;;4.30;3.00;;;10.40;99.90;;;;;;5038421;28;20450;-67
2021/12/24 12:24:56;;;;;;;3.80;3.00;;;10.40;99.90;;;;;;5040121;28;20475;-67
2021/12/24 12:26:43;;;;;;;4.83;2.90;;;10.50;99.90;;;;;;5040092;28;20456;-66
2021/12/24 12:29:33;;;;;;;4.50;2.37;;;10.50;99.90;;;;;;5039423;28;20502;-69
2021/12/24 12:32:25;;;;;;;4.00;2.60;;;10.50;99.90;;;;;;5045578;28;20488;-67
2021/12/24 12:35:00;;;;;;;3.80;2.33;;;10.50;99.90;;;;;;5045130;28;20452;-68
2021/12/24 12:37:30;;;;;;;5.30;2.77;;;10.50;99.90;;;;;;5046512;28;20519;-67
2021/12/24 12:40:03;;;;;;;3.23;2.57;;;10.50;99.90;;;;;;5047026;28;20437;-67
2021/12/24 12:43:03;;;;;;;3.67;2.50;;;10.50;99.90;;;;;;5047182;28;20432;-67
2021/12/24 12:45:53;;;;;;;2.67;1.93;;;10.40;99.90;;;;;;5023361;28;20575;-68
2021/12/24 12:48:24;;;;;;;2.90;1.50;;;10.40;99.90;;;;;;5045260;28;20524;-68
2021/12/24 12:50:55;;;;;;;2.53;1.50;;;10.40;99.90;;;;;;5047109;28;20476;-68
2021/12/24 12:53:28;;;;;;;2.90;1.60;;;10.40;99.90;;;;;;5047128;28;20554;-68
2021/12/24 12:56:16;;;;;;;3.23;1.57;;;10.40;99.90;;;;;;5040204;28;20842;-68
2021/12/24 12:58:44;;;;;;;2.43;1.40;;;10.40;99.90;;;;;;5033030;28;20460;-68
2021/12/24 13:01:14;;;;;;;2.93;1.83;;;10.40;99.90;;;;;;5034720;28;20437;-68
2021/12/24 13:04:13;;;;;;;3.77;1.60;;;10.40;99.90;;;;;;5036896;28;20469;-68
2021/12/24 13:07:01;;;;;;;4.67;1.53;;;10.40;99.90;;;;;;5030021;28;20974;-68
2021/12/24 13:09:33;;;;;;;2.40;1.37;;;10.40;99.90;;;;;;5035925;28;20496;-68
2021/12/24 13:12:03;;;;;;;2.50;1.50;;;10.40;99.90;;;;;;5031342;28;20485;-68
2021/12/24 13:14:35;;;;;;;2.27;1.30;;;10.30;99.90;;;;;;5033697;28;20465;-68
2021/12/24 13:17:18;;;;;;;2.93;1.60;;;10.30;99.90;;;;;;5046375;28;21154;-69
2021/12/24 13:20:07;;;;;;;2.37;1.37;;;10.30;99.90;;;;;;5046600;28;20448;-68
2021/12/24 13:22:36;;;;;;;2.83;1.83;;;10.30;99.90;;;;;;5046429;28;20464;-68
2021/12/24 13:25:10;;;;;;;2.23;1.20;;;10.30;99.90;;;;;;5047357;28;20451;-68
2021/12/24 13:27:39;;;;;;;2.00;1.10;;;10.40;99.90;;;;;;5046307;28;20445;-67
2021/12/24 13:30:10;;;;;;;2.87;1.40;;;10.40;99.90;;;;;;5046987;28;20765;-68
2021/12/24 13:32:41;;;;;;;2.03;1.10;;;10.40;99.90;;;;;;5047040;28;20444;-68
2021/12/24 13:35:09;;;;;;;3.60;1.50;;;10.40;99.90;;;;;;5046725;28;20444;-67
2021/12/24 13:37:36;;;;;;;2.33;1.40;;;10.30;99.90;;;;;;5046139;28;20441;-68
2021/12/24 13:40:09;;;;;;;2.30;1.27;;;10.30;99.90;;;;;;5030970;28;20445;-71
2021/12/24 13:42:44;;;;;;;2.30;1.37;;;10.30;99.90;;;;;;5023598;28;20448;-66
2021/12/24 13:45:11;;;;;;;2.07;1.43;;;10.30;99.90;;;;;;5035590;28;21259;-70
2021/12/24 13:47:52;;;;;;;2.70;1.30;;;10.30;99.90;;;;;;5034285;28;20444;-69
2021/12/24 13:54:30;;;;;;;2.37;1.30;;;10.30;99.90;;;;;;5043693;28;20452;-70
2021/12/24 13:55:59;;;;;;;2.23;1.07;;;10.30;99.90;;;;;;5042346;28;20509;-69
2021/12/24 13:58:27;;;;;;;2.10;1.27;;;10.30;99.90;;;;;;5043866;28;20540;-70
2021/12/24 14:00:57;;;;;;;2.40;1.43;;;10.20;99.90;;;;;;5039121;28;20441;-69
2021/12/24 14:03:25;;;;;;;2.20;1.47;;;10.10;99.90;;;;;;5043840;28;20452;-68
2021/12/24 14:05:56;;;;;;;2.07;1.30;;;10.10;99.90;;;;;;5037652;28;20451;-68
2021/12/24 14:08:25;;;;;;;2.87;1.20;;;10.00;99.90;;;;;;5042106;28;20451;-67
2021/12/24 14:11:08;;;;;;;2.57;1.40;;;10.00;99.90;;;;;;5036312;28;20487;-70
2021/12/24 14:13:39;;;;;;;2.43;1.50;;;9.90;99.90;;;;;;5046692;28;20460;-68
2021/12/24 14:16:33;;;;;;;2.70;1.50;;;9.90;99.90;;;;;;5045514;28;20450;-67
2021/12/24 14:19:14;;;;;;;2.60;1.50;;;9.90;99.90;;;;;;5045515;28;20470;-68
2021/12/24 14:21:46;;;;;;;3.37;1.40;;;10.00;99.90;;;;;;5041386;28;20515;-69
2021/12/24 14:24:24;;;;;;;2.83;1.63;;;10.00;99.90;;;;;;5042301;28;21186;-68
2021/12/24 14:26:56;;;;;;;3.17;1.60;;;10.00;99.90;;;;;;5044937;28;20490;-67